createdAt,value
2022-10-18T00:00:54.672Z,64.30
2022-10-18T00:03:23.468Z,64.28
2022-10-18T00:05:53.292Z,64.34
2022-10-18T00:08:21.581Z,64.30
2022-10-18T00:10:50.072Z,64.43
2022-10-18T00:13:18.530Z,64.37
2022-10-18T00:15:50.633Z,64.24
2022-10-18T00:18:18.978Z,64.38
2022-10-18T00:20:46.969Z,64.29
2022-10-18T00:23:16.377Z,64.30
2022-10-18T00:25:44.348Z,64.65
2022-10-18T00:28:12.403Z,64.72
2022-10-18T00:30:40.375Z,64.68
2022-10-18T00:33:08.440Z,64.67
2022-10-18T00:35:36.465Z,64.97
2022-10-18T00:38:04.503Z,65.12
2022-10-18T00:40:34.258Z,64.98
2022-10-18T00:43:02.310Z,64.73
2022-10-18T00:45:30.598Z,64.62
2022-10-18T00:48:02.385Z,64.82
2022-10-18T00:50:34.211Z,65.05
2022-10-18T00:53:05.981Z,65.21
2022-10-18T00:55:35.628Z,65.11
2022-10-18T00:58:04.912Z,65.14
2022-10-18T01:00:34.746Z,65.14
2022-10-18T01:03:02.766Z,65.01
2022-10-18T01:05:30.829Z,64.94
2022-10-18T01:08:21.075Z,64.56
2022-10-18T01:11:01.619Z,64.56
2022-10-18T01:13:40.590Z,64.45
2022-10-18T01:16:15.776Z,64.43
2022-10-18T01:18:48.843Z,64.37
2022-10-18T01:21:31.181Z,64.08
2022-10-18T01:24:31.019Z,63.92
2022-10-18T01:27:23.947Z,64.01
2022-10-18T01:30:08.058Z,63.96
2022-10-18T01:32:42.563Z,63.91
2022-10-18T01:35:15.251Z,63.90
2022-10-18T01:37:46.805Z,63.78
2022-10-18T01:40:18.658Z,63.82
2022-10-18T01:42:48.842Z,63.65
2022-10-18T01:45:18.045Z,63.63
2022-10-18T01:47:48.335Z,63.73
2022-10-18T01:50:16.657Z,63.76
2022-10-18T01:52:52.030Z,63.63
2022-10-18T01:55:26.741Z,63.60
2022-10-18T01:58:00.485Z,63.61
2022-10-18T02:00:37.637Z,63.55
2022-10-18T02:03:14.685Z,63.58
2022-10-18T02:05:50.212Z,63.56
2022-10-18T02:08:26.217Z,63.66
2022-10-18T02:10:59.862Z,63.56
2022-10-18T02:13:32.753Z,63.48
2022-10-18T02:16:06.086Z,63.42
2022-10-18T02:18:40.390Z,63.41
2022-10-18T02:21:11.929Z,63.42
2022-10-18T02:23:40.325Z,63.47
2022-10-18T02:26:08.590Z,63.55
2022-10-18T02:28:36.650Z,63.54
2022-10-18T02:31:11.950Z,63.43
2022-10-18T02:33:47.721Z,63.27
2022-10-18T02:36:19.676Z,63.32
2022-10-18T02:38:49.399Z,63.44
2022-10-18T02:41:24.002Z,63.42
2022-10-18T02:43:52.018Z,63.49
2022-10-18T02:46:20.270Z,63.47
2022-10-18T02:48:49.844Z,63.50
2022-10-18T02:51:18.171Z,63.44
2022-10-18T02:53:46.203Z,63.49
2022-10-18T02:56:14.262Z,63.66
2022-10-18T02:58:42.249Z,63.76
2022-10-18T03:01:10.354Z,63.73
2022-10-18T03:03:38.371Z,63.74
2022-10-18T03:06:07.797Z,63.88
2022-10-18T03:08:37.109Z,63.82
2022-10-18T03:11:05.105Z,63.73
2022-10-18T03:13:34.301Z,63.65
2022-10-18T03:16:02.714Z,63.66
2022-10-18T03:18:30.770Z,63.69
2022-10-18T03:20:59.312Z,63.75
2022-10-18T03:23:28.694Z,63.85
2022-10-18T03:25:56.703Z,63.73
2022-10-18T03:28:24.731Z,63.64
2022-10-18T03:30:52.764Z,63.75
2022-10-18T03:33:20.849Z,63.83
2022-10-18T03:35:48.802Z,63.92
2022-10-18T03:38:16.785Z,63.97
2022-10-18T03:40:46.190Z,64.11
2022-10-18T03:43:14.198Z,64.20
2022-10-18T03:45:42.413Z,64.32
2022-10-18T03:48:10.428Z,64.31
2022-10-18T03:50:38.499Z,64.24
2022-10-18T03:53:06.557Z,64.21
2022-10-18T03:55:34.534Z,64.27
2022-10-18T03:58:04.074Z,64.28
2022-10-18T04:00:32.174Z,64.37
2022-10-18T04:03:00.233Z,64.30
2022-10-18T04:05:30.839Z,64.14
2022-10-18T04:07:59.012Z,64.00
2022-10-18T04:10:27.309Z,63.78
2022-10-18T04:12:55.659Z,63.79
2022-10-18T04:15:24.996Z,63.83
2022-10-18T04:17:52.966Z,63.91
2022-10-18T04:20:21.010Z,63.85
2022-10-18T04:22:49.626Z,63.78
2022-10-18T04:25:17.922Z,63.92
2022-10-18T04:27:45.881Z,63.93
2022-10-18T04:30:13.940Z,64.08
2022-10-18T04:32:43.298Z,64.05
2022-10-18T04:35:11.425Z,64.01
2022-10-18T04:37:39.397Z,63.86
2022-10-18T04:40:08.683Z,63.81
2022-10-18T04:42:36.720Z,63.79
2022-10-18T04:45:04.965Z,63.91
2022-10-18T04:47:33.198Z,63.93
2022-10-18T04:50:02.810Z,63.97
2022-10-18T04:52:30.835Z,64.00
2022-10-18T04:54:58.902Z,63.99
2022-10-18T04:57:26.875Z,63.88
2022-10-18T04:59:54.898Z,63.92
2022-10-18T05:02:22.911Z,63.89
2022-10-18T05:04:51.922Z,63.94
2022-10-18T05:07:21.297Z,63.98
2022-10-18T05:09:49.333Z,63.93
2022-10-18T05:12:17.345Z,63.98
2022-10-18T05:14:45.364Z,64.06
2022-10-18T05:17:13.345Z,64.16
2022-10-18T05:19:41.372Z,64.19
2022-10-18T05:22:09.352Z,64.15
2022-10-18T05:24:38.752Z,64.23
2022-10-18T05:27:06.772Z,64.27
2022-10-18T05:29:34.790Z,64.18
2022-10-18T05:32:03.190Z,64.21
2022-10-18T05:34:32.017Z,64.22
2022-10-18T05:37:00.839Z,64.23
2022-10-18T05:39:28.827Z,64.18
2022-10-18T05:41:58.581Z,64.01
2022-10-18T05:44:26.675Z,64.01
2022-10-18T05:46:54.619Z,64.04
2022-10-18T05:49:22.661Z,63.89
2022-10-18T05:51:50.686Z,63.92
2022-10-18T05:54:19.090Z,63.89
2022-10-18T05:56:47.131Z,63.91
2022-10-18T05:59:16.467Z,64.01
2022-10-18T06:01:45.532Z,64.07
2022-10-18T06:04:13.632Z,64.09
2022-10-18T06:06:41.614Z,64.09
2022-10-18T06:09:09.628Z,64.08
2022-10-18T06:11:38.096Z,64.08
2022-10-18T06:14:06.380Z,64.09
2022-10-18T06:19:08.773Z,64.09
2022-10-18T06:21:36.771Z,64.12
2022-10-18T06:24:04.994Z,64.32
2022-10-18T06:26:32.967Z,64.35
2022-10-18T06:29:01.074Z,64.27
2022-10-18T06:31:29.056Z,64.30
2022-10-18T06:33:59.089Z,64.28
2022-10-18T06:36:27.113Z,64.24
2022-10-18T06:38:56.572Z,64.01
2022-10-18T06:41:25.233Z,64.08
2022-10-18T06:43:57.334Z,64.27
2022-10-18T06:46:26.013Z,64.47
2022-10-18T06:48:54.035Z,64.50
2022-10-18T06:51:23.359Z,64.36
2022-10-18T06:54:06.180Z,64.22
2022-10-18T06:56:39.698Z,64.24
2022-10-18T06:59:07.693Z,64.25
2022-10-18T07:01:35.752Z,64.21
2022-10-18T07:04:03.880Z,64.06
2022-10-18T07:06:33.281Z,63.89
2022-10-18T07:09:03.019Z,63.98
2022-10-18T07:11:31.053Z,64.05
2022-10-18T07:14:03.138Z,63.91
2022-10-18T07:16:31.649Z,64.18
2022-10-18T07:18:59.761Z,64.40
2022-10-18T07:21:28.011Z,64.40
2022-10-18T07:23:57.954Z,64.50
2022-10-18T07:26:29.070Z,64.53
2022-10-18T07:28:59.277Z,64.48
2022-10-18T07:31:27.506Z,64.45
2022-10-18T07:33:55.697Z,64.28
2022-10-18T07:36:24.648Z,64.15
2022-10-18T07:38:53.467Z,64.14
2022-10-18T07:41:23.493Z,64.08
2022-10-18T07:43:53.603Z,64.10
2022-10-18T07:46:23.167Z,64.11
2022-10-18T07:48:51.674Z,64.14
2022-10-18T07:51:20.440Z,64.26
2022-10-18T07:53:48.966Z,64.45
2022-10-18T07:56:21.013Z,64.17
2022-10-18T07:58:52.664Z,64.22
2022-10-18T08:01:21.663Z,64.34
2022-10-18T08:03:50.183Z,64.51
2022-10-18T08:06:19.620Z,64.29
2022-10-18T08:08:47.854Z,64.05
2022-10-18T08:11:18.110Z,64.05
2022-10-18T08:13:46.271Z,63.96
2022-10-18T08:16:17.887Z,63.81
2022-10-18T08:18:46.099Z,64.35
2022-10-18T08:21:15.230Z,64.53
2022-10-18T08:23:43.953Z,63.90
2022-10-18T08:26:14.243Z,63.37
2022-10-18T08:28:49.082Z,63.63
2022-10-18T08:31:27.912Z,63.56
2022-10-18T08:33:57.385Z,63.63
2022-10-18T08:36:25.621Z,64.47
2022-10-18T08:38:53.677Z,63.99
2022-10-18T08:41:43.699Z,63.45
2022-10-18T08:44:18.698Z,63.47
2022-10-18T08:46:50.454Z,63.79
2022-10-18T08:49:28.529Z,63.63
2022-10-18T08:51:57.655Z,62.86
2022-10-18T08:54:32.703Z,64.14
2022-10-18T08:57:03.087Z,65.62
2022-10-18T08:59:39.174Z,65.02
2022-10-18T09:02:18.261Z,65.53
2022-10-18T09:04:51.782Z,64.08
2022-10-18T09:07:36.768Z,61.73
2022-10-18T09:10:17.344Z,58.60
2022-10-18T09:13:01.226Z,57.95
2022-10-18T09:15:37.939Z,57.67
2022-10-18T09:18:18.711Z,56.34
2022-10-18T09:20:55.045Z,57.01
2022-10-18T09:23:26.545Z,54.41
2022-10-18T09:26:02.537Z,53.68
2022-10-18T09:28:41.236Z,52.26
2022-10-18T09:31:17.053Z,50.65
2022-10-18T09:33:52.347Z,49.25
2022-10-18T09:36:23.879Z,48.74
2022-10-18T09:38:57.173Z,48.43
2022-10-18T09:41:33.106Z,46.75
2022-10-18T09:44:07.291Z,46.08
2022-10-18T09:46:39.865Z,44.80
2022-10-18T09:49:16.347Z,44.38
2022-10-18T09:51:46.054Z,43.32
2022-10-18T09:54:22.854Z,43.45
2022-10-18T09:56:53.633Z,43.39
2022-10-18T09:59:33.720Z,42.48
2022-10-18T10:02:01.794Z,42.41
2022-10-18T10:04:31.213Z,42.15
2022-10-18T10:07:02.582Z,40.68
2022-10-18T10:09:32.614Z,39.88
2022-10-18T10:12:00.839Z,40.58
2022-10-18T10:14:30.791Z,39.49
2022-10-18T10:17:02.211Z,39.59
2022-10-18T10:19:34.115Z,39.76
2022-10-18T10:22:06.530Z,39.20
2022-10-18T10:24:41.585Z,38.53
2022-10-18T10:27:20.433Z,37.87
2022-10-18T10:30:01.417Z,38.36
2022-10-18T10:32:33.150Z,37.66
2022-10-18T10:35:02.573Z,36.92
2022-10-18T10:37:35.832Z,35.88
2022-10-18T10:40:24.110Z,35.55
2022-10-18T10:43:18.454Z,34.82
2022-10-18T10:46:03.436Z,34.52
2022-10-18T10:48:34.686Z,34.18
2022-10-18T10:51:07.258Z,33.56
2022-10-18T10:53:40.681Z,34.77
2022-10-18T10:56:32.295Z,35.34
2022-10-18T10:59:09.170Z,36.07
2022-10-18T11:01:37.589Z,35.87
2022-10-18T11:04:26.862Z,34.92
2022-10-18T11:07:13.842Z,35.87
2022-10-18T11:10:01.626Z,34.73
2022-10-18T11:12:34.698Z,35.82
2022-10-18T11:15:23.422Z,36.59
2022-10-18T11:18:04.080Z,35.34
2022-10-18T11:20:37.931Z,35.63
2022-10-18T11:23:11.462Z,38.04
2022-10-18T11:25:56.266Z,39.67
2022-10-18T11:28:33.746Z,38.59
2022-10-18T11:31:15.386Z,39.51
2022-10-18T11:34:08.605Z,38.86
2022-10-18T11:36:54.707Z,36.74
2022-10-18T11:39:42.364Z,35.78
2022-10-18T11:42:20.598Z,34.47
2022-10-18T11:44:56.907Z,33.76
2022-10-18T11:47:33.171Z,34.38
2022-10-18T11:50:12.963Z,33.09
2022-10-18T11:52:49.107Z,33.89
2022-10-18T11:55:37.867Z,33.37
2022-10-18T11:58:35.298Z,32.86
2022-10-18T12:01:12.656Z,31.95
2022-10-18T12:03:55.230Z,32.26
2022-10-18T12:06:27.441Z,32.09
2022-10-18T12:08:59.841Z,31.12
2022-10-18T12:11:33.002Z,30.76
2022-10-18T12:14:03.274Z,31.90
2022-10-18T12:16:51.073Z,32.93
2022-10-18T12:19:26.395Z,32.32
2022-10-18T12:21:57.539Z,33.44
2022-10-18T12:24:28.692Z,32.60
2022-10-18T12:27:01.305Z,33.92
2022-10-18T12:29:33.015Z,33.84
2022-10-18T12:32:04.307Z,34.31
2022-10-18T12:34:37.030Z,34.08
2022-10-18T12:37:31.275Z,34.56
2022-10-18T12:40:11.130Z,35.75
2022-10-18T12:42:48.076Z,35.43
2022-10-18T12:45:33.087Z,36.63
2022-10-18T12:48:02.399Z,37.09
2022-10-18T12:50:38.971Z,36.82
2022-10-18T12:53:20.179Z,35.13
2022-10-18T12:55:51.376Z,35.19
2022-10-18T12:58:30.075Z,33.12
2022-10-18T13:01:04.546Z,33.92
2022-10-18T13:03:58.578Z,34.01
2022-10-18T13:06:26.700Z,34.22
2022-10-18T13:09:20.514Z,35.08
2022-10-18T13:11:49.062Z,35.10
2022-10-18T13:15:12.781Z,35.02
2022-10-18T13:17:53.912Z,35.66
2022-10-18T13:20:27.876Z,36.05
2022-10-18T13:23:24.356Z,36.07
2022-10-18T13:25:59.791Z,36.32
2022-10-18T13:28:33.343Z,35.64
2022-10-18T13:31:20.486Z,36.87
2022-10-18T13:33:48.875Z,37.24
2022-10-18T13:36:24.809Z,36.34
2022-10-18T13:39:05.904Z,35.49
2022-10-18T13:41:57.414Z,34.66
2022-10-18T13:44:30.548Z,33.96
2022-10-18T13:47:36.154Z,33.79
2022-10-18T13:50:31.091Z,33.51
2022-10-18T13:53:33.929Z,33.73
2022-10-18T13:56:26.677Z,34.35
2022-10-18T13:59:14.329Z,33.11
2022-10-18T14:01:56.260Z,32.63
2022-10-18T14:04:41.578Z,32.69
2022-10-18T14:07:11.402Z,31.72
2022-10-18T14:09:48.855Z,32.80
2022-10-18T14:12:27.662Z,32.55
2022-10-18T14:15:03.267Z,32.60
2022-10-18T14:17:40.938Z,33.40
2022-10-18T14:20:19.746Z,34.18
2022-10-18T14:22:52.422Z,34.07
2022-10-18T14:25:23.624Z,34.15
2022-10-18T14:28:07.754Z,34.72
2022-10-18T14:30:37.429Z,35.30
2022-10-18T14:33:06.971Z,35.40
2022-10-18T14:35:35.773Z,36.43
2022-10-18T14:38:04.326Z,37.39
2022-10-18T14:40:38.140Z,38.29
2022-10-18T14:43:11.785Z,39.12
2022-10-18T14:45:39.905Z,39.51
2022-10-18T14:48:15.839Z,39.50
2022-10-18T14:50:44.869Z,40.44
2022-10-18T14:53:18.675Z,40.27
2022-10-18T14:55:54.571Z,40.68
2022-10-18T14:58:23.275Z,41.18
2022-10-18T15:00:51.495Z,41.63
2022-10-18T15:03:21.343Z,42.25
2022-10-18T15:05:59.349Z,42.54
2022-10-18T15:08:30.649Z,43.04
2022-10-18T15:10:58.973Z,43.53
2022-10-18T15:13:27.401Z,43.88
2022-10-18T15:15:56.687Z,44.35
2022-10-18T15:18:27.922Z,44.49
2022-10-18T15:21:09.816Z,44.38
2022-10-18T15:23:37.938Z,44.74
2022-10-18T15:26:08.568Z,44.83
2022-10-18T15:28:49.369Z,45.03
2022-10-18T15:31:25.081Z,45.08
2022-10-18T15:33:56.346Z,45.38
2022-10-18T15:36:32.923Z,45.51
2022-10-18T15:39:09.570Z,45.36
2022-10-18T15:41:42.260Z,45.54
2022-10-18T15:44:21.879Z,45.32
2022-10-18T15:46:52.865Z,45.48
2022-10-18T15:49:58.222Z,45.45
2022-10-18T15:52:37.784Z,45.70
2022-10-18T15:55:47.791Z,45.68
2022-10-18T15:58:22.222Z,45.91
2022-10-18T16:00:51.875Z,45.48
2022-10-18T16:03:22.269Z,45.71
2022-10-18T16:05:51.068Z,45.51
2022-10-18T16:08:25.235Z,45.03
2022-10-18T16:10:53.990Z,45.16
2022-10-18T16:13:22.026Z,45.15
2022-10-18T16:15:50.034Z,45.24
2022-10-18T16:18:20.192Z,45.45
2022-10-18T16:20:49.134Z,45.61
2022-10-18T16:23:19.368Z,45.71
2022-10-18T16:25:49.100Z,45.96
2022-10-18T16:28:19.773Z,45.96
2022-10-18T16:30:54.727Z,46.28
2022-10-18T16:33:22.808Z,46.51
2022-10-18T16:35:50.979Z,46.87
2022-10-18T16:38:31.089Z,47.04
2022-10-18T16:41:04.054Z,47.47
2022-10-18T16:43:32.586Z,47.62
2022-10-18T16:46:00.554Z,47.98
2022-10-18T16:48:29.189Z,48.19
2022-10-18T16:50:57.883Z,48.41
2022-10-18T16:53:26.327Z,48.79
2022-10-18T16:55:57.065Z,49.15
2022-10-18T16:58:28.514Z,49.33
2022-10-18T17:00:56.928Z,49.44
2022-10-18T17:03:28.225Z,49.66
2022-10-18T17:05:59.176Z,49.80
2022-10-18T17:08:29.133Z,50.05
2022-10-18T17:11:01.759Z,50.14
2022-10-18T17:13:31.238Z,50.25
2022-10-18T17:16:03.766Z,50.43
2022-10-18T17:18:35.109Z,50.67
2022-10-18T17:21:03.426Z,51.07
2022-10-18T17:23:31.562Z,50.91
2022-10-18T17:26:06.769Z,50.88
2022-10-18T17:28:38.839Z,50.83
2022-10-18T17:31:08.256Z,50.82
2022-10-18T17:33:36.467Z,50.81
2022-10-18T17:36:04.984Z,51.03
2022-10-18T17:38:33.034Z,50.86
2022-10-18T17:41:01.336Z,50.98
2022-10-18T17:43:29.378Z,50.88
2022-10-18T17:45:58.779Z,50.90
2022-10-18T17:48:28.265Z,50.56
2022-10-18T17:50:56.713Z,50.70
2022-10-18T17:53:28.466Z,50.79
2022-10-18T17:56:02.402Z,50.59
2022-10-18T17:58:31.513Z,50.95
2022-10-18T18:01:09.823Z,50.66
2022-10-18T18:03:37.946Z,50.96
2022-10-18T18:06:16.725Z,50.95
2022-10-18T18:08:44.853Z,51.12
2022-10-18T18:11:12.973Z,51.16
2022-10-18T18:13:41.251Z,51.44
2022-10-18T18:16:16.692Z,51.13
2022-10-18T18:18:45.064Z,51.28
2022-10-18T18:21:13.449Z,51.03
2022-10-18T18:23:41.572Z,50.82
2022-10-18T18:26:09.830Z,50.75
2022-10-18T18:28:38.381Z,50.90
2022-10-18T18:31:07.697Z,50.79
2022-10-18T18:33:37.712Z,50.76
2022-10-18T18:36:06.995Z,50.60
2022-10-18T18:38:37.370Z,50.60
2022-10-18T18:41:10.324Z,50.39
2022-10-18T18:43:39.526Z,50.40
2022-10-18T18:46:08.047Z,50.71
2022-10-18T18:48:37.967Z,50.83
2022-10-18T18:51:09.822Z,50.73
2022-10-18T18:53:39.144Z,50.83
2022-10-18T18:56:10.767Z,50.90
2022-10-18T18:58:40.096Z,50.77
2022-10-18T19:01:09.175Z,50.75
2022-10-18T19:03:40.253Z,50.81
2022-10-18T19:06:10.887Z,51.11
2022-10-18T19:08:40.246Z,51.09
2022-10-18T19:11:09.636Z,51.30
2022-10-18T19:13:37.830Z,51.50
2022-10-18T19:16:20.362Z,51.52
2022-10-18T19:18:58.253Z,51.57
2022-10-18T19:21:28.884Z,51.87
2022-10-18T19:23:57.764Z,51.95
2022-10-18T19:26:32.071Z,52.04
2022-10-18T19:29:09.581Z,51.97
2022-10-18T19:31:38.337Z,52.15
2022-10-18T19:34:09.494Z,52.01
2022-10-18T19:36:38.566Z,51.79
2022-10-18T19:39:09.919Z,51.66
2022-10-18T19:41:37.967Z,51.64
2022-10-18T19:44:06.464Z,51.48
2022-10-18T19:46:34.478Z,51.38
2022-10-18T19:49:02.529Z,51.63
2022-10-18T19:51:31.939Z,51.72
2022-10-18T19:54:00.189Z,51.91
2022-10-18T19:56:29.153Z,52.03
2022-10-18T19:58:57.852Z,51.85
2022-10-18T20:01:27.360Z,51.90
2022-10-18T20:03:55.942Z,51.86
2022-10-18T20:06:24.400Z,51.82
2022-10-18T20:08:54.050Z,51.95
2022-10-18T20:11:24.286Z,52.09
2022-10-18T20:13:52.583Z,52.34
2022-10-18T20:16:27.703Z,52.41
2022-10-18T20:18:57.627Z,52.70
2022-10-18T20:21:26.462Z,52.94
2022-10-18T20:23:55.930Z,53.02
2022-10-18T20:26:25.603Z,53.10
2022-10-18T20:28:57.747Z,53.08
2022-10-18T20:31:27.753Z,53.24
2022-10-18T20:33:57.458Z,53.30
2022-10-18T20:36:26.473Z,53.36
2022-10-18T20:38:56.172Z,53.43
2022-10-18T20:41:26.651Z,53.57
2022-10-18T20:43:56.127Z,53.56
2022-10-18T20:46:24.848Z,53.68
2022-10-18T20:48:53.915Z,53.66
2022-10-18T20:51:22.660Z,53.89
2022-10-18T20:53:51.359Z,53.92
2022-10-18T20:56:23.223Z,53.98
2022-10-18T20:58:52.582Z,54.02
2022-10-18T21:01:23.461Z,54.09
2022-10-18T21:03:54.209Z,54.35
2022-10-18T21:06:23.898Z,54.30
2022-10-18T21:08:54.517Z,54.30
2022-10-18T21:11:24.767Z,54.39
2022-10-18T21:13:53.261Z,54.39
2022-10-18T21:16:21.351Z,54.39
2022-10-18T21:18:50.144Z,54.40
2022-10-18T21:21:22.982Z,54.33
2022-10-18T21:23:51.857Z,54.20
2022-10-18T21:26:22.108Z,54.25
2022-10-18T21:28:52.946Z,54.13
2022-10-18T21:31:23.205Z,54.34
2022-10-18T21:33:54.909Z,54.23
2022-10-18T21:36:23.577Z,54.31
2022-10-18T21:38:51.690Z,54.33
2022-10-18T21:41:21.370Z,54.35
2022-10-18T21:43:53.072Z,54.68
2022-10-18T21:46:23.090Z,54.89
2022-10-18T21:48:53.365Z,54.61
2022-10-18T21:51:23.082Z,54.55
2022-10-18T21:53:53.465Z,54.65
2022-10-18T21:56:23.458Z,54.85
2022-10-18T21:58:52.985Z,54.94
2022-10-18T22:01:23.666Z,54.97
2022-10-18T22:03:53.308Z,55.20
2022-10-18T22:06:22.117Z,55.58
2022-10-18T22:08:52.620Z,56.06
2022-10-18T22:11:23.910Z,56.37
2022-10-18T22:13:54.153Z,56.70
2022-10-18T22:16:22.782Z,56.97
2022-10-18T22:18:51.969Z,57.22
2022-10-18T22:21:21.743Z,57.15
2022-10-18T22:23:54.211Z,57.29
2022-10-18T22:26:23.575Z,57.48
2022-10-18T22:28:57.538Z,57.69
2022-10-18T22:31:28.099Z,58.13
2022-10-18T22:33:57.279Z,58.47
2022-10-18T22:36:25.831Z,58.57
2022-10-18T22:38:54.153Z,58.62
2022-10-18T22:41:22.225Z,58.56
2022-10-18T22:43:51.538Z,58.37
2022-10-18T22:46:21.227Z,58.23
2022-10-18T22:48:49.853Z,58.15
2022-10-18T22:51:18.306Z,58.11
2022-10-18T22:53:46.913Z,58.03
2022-10-18T22:56:17.627Z,57.93
2022-10-18T22:58:45.826Z,57.98
2022-10-18T23:01:15.800Z,57.80
2022-10-18T23:03:45.202Z,58.15
2022-10-18T23:06:21.464Z,57.95
2022-10-18T23:08:49.914Z,57.84
2022-10-18T23:11:18.271Z,57.82
2022-10-18T23:13:46.532Z,58.20
2022-10-18T23:16:15.289Z,57.81
2022-10-18T23:18:45.503Z,57.74
2022-10-18T23:21:15.196Z,58.02
2022-10-18T23:23:43.936Z,58.17
2022-10-18T23:26:14.637Z,58.15
2022-10-18T23:28:44.988Z,58.05
2022-10-18T23:31:14.842Z,58.00
2022-10-18T23:33:42.887Z,58.02
2022-10-18T23:36:12.375Z,57.72
2022-10-18T23:38:40.950Z,57.80
2022-10-18T23:41:10.790Z,57.96
2022-10-18T23:43:39.478Z,58.05
2022-10-18T23:46:08.365Z,57.60
2022-10-18T23:48:37.001Z,57.40
2022-10-18T23:51:05.801Z,57.37
2022-10-18T23:53:35.598Z,57.26
2022-10-18T23:56:06.229Z,57.24
2022-10-18T23:58:35.826Z,57.17
